sensor_id;sensor_type;location;lat;lon;timestamp;pressure;altitude;pressure_sealevel;temperature;humidity
58662;BME280;44432;49.786;22.760;2022-09-09T00:00:42;98966.16;;;17.38;85.05
58662;BME280;44432;49.786;22.760;2022-09-09T00:03:34;98953.77;;;17.35;84.90
58662;BME280;44432;49.786;22.760;2022-09-09T00:06:12;98946.14;;;17.35;85.03
58662;BME280;44432;49.786;22.760;2022-09-09T00:08:55;98955.27;;;17.34;84.97
58662;BME280;44432;49.786;22.760;2022-09-09T00:11:31;98959.90;;;17.31;84.86
58662;BME280;44432;49.786;22.760;2022-09-09T00:14:06;98962.83;;;17.28;84.99
58662;BME280;44432;49.786;22.760;2022-09-09T00:16:46;98975.52;;;17.25;84.74
58662;BME280;44432;49.786;22.760;2022-09-09T00:19:22;98968.04;;;17.20;84.57
58662;BME280;44432;49.786;22.760;2022-09-09T00:22:04;98970.48;;;17.14;84.45
58662;BME280;44432;49.786;22.760;2022-09-09T00:24:43;98974.61;;;17.07;84.19
58662;BME280;44432;49.786;22.760;2022-09-09T00:27:21;98979.49;;;16.99;84.09
58662;BME280;44432;49.786;22.760;2022-09-09T00:29:58;98975.73;;;16.93;83.92
58662;BME280;44432;49.786;22.760;2022-09-09T00:32:31;98979.02;;;16.88;83.86
58662;BME280;44432;49.786;22.760;2022-09-09T00:35:14;98993.77;;;16.83;83.83
58662;BME280;44432;49.786;22.760;2022-09-09T00:37:50;98989.48;;;16.78;83.73
58662;BME280;44432;49.786;22.760;2022-09-09T00:40:29;98981.66;;;16.69;83.53
58662;BME280;44432;49.786;22.760;2022-09-09T00:43:16;98978.09;;;16.61;83.49
58662;BME280;44432;49.786;22.760;2022-09-09T00:46:05;98978.27;;;16.52;83.75
58662;BME280;44432;49.786;22.760;2022-09-09T00:48:47;98980.85;;;16.49;83.69
58662;BME280;44432;49.786;22.760;2022-09-09T00:51:22;98979.02;;;16.46;83.92
58662;BME280;44432;49.786;22.760;2022-09-09T00:54:09;98983.58;;;16.40;83.79
58662;BME280;44432;49.786;22.760;2022-09-09T00:56:51;98987.97;;;16.36;83.87
58662;BME280;44432;49.786;22.760;2022-09-09T00:59:31;98992.42;;;16.33;83.75
58662;BME280;44432;49.786;22.760;2022-09-09T01:02:08;98998.14;;;16.27;83.52
58662;BME280;44432;49.786;22.760;2022-09-09T01:04:43;98997.40;;;16.21;83.47
58662;BME280;44432;49.786;22.760;2022-09-09T01:07:18;98996.03;;;16.15;83.53
58662;BME280;44432;49.786;22.760;2022-09-09T01:09:56;98994.20;;;16.12;83.63
58662;BME280;44432;49.786;22.760;2022-09-09T01:12:32;98993.75;;;16.09;83.70
58662;BME280;44432;49.786;22.760;2022-09-09T01:15:10;98996.17;;;16.05;83.51
58662;BME280;44432;49.786;22.760;2022-09-09T01:17:51;98996.55;;;16.00;83.44
58662;BME280;44432;49.786;22.760;2022-09-09T01:20:26;98996.51;;;15.94;83.41
58662;BME280;44432;49.786;22.760;2022-09-09T01:23:15;98999.17;;;15.89;83.49
58662;BME280;44432;49.786;22.760;2022-09-09T01:26:11;99007.78;;;15.86;83.56
58662;BME280;44432;49.786;22.760;2022-09-09T01:28:46;99012.66;;;15.84;83.81
58662;BME280;44432;49.786;22.760;2022-09-09T01:31:20;99011.96;;;15.83;83.44
58662;BME280;44432;49.786;22.760;2022-09-09T01:33:51;99012.15;;;15.80;83.35
58662;BME280;44432;49.786;22.760;2022-09-09T01:36:32;99012.23;;;15.79;83.48
58662;BME280;44432;49.786;22.760;2022-09-09T01:39:05;99011.48;;;15.77;83.40
58662;BME280;44432;49.786;22.760;2022-09-09T01:41:36;99005.91;;;15.74;83.31
58662;BME280;44432;49.786;22.760;2022-09-09T01:44:07;99008.04;;;15.75;83.30
58662;BME280;44432;49.786;22.760;2022-09-09T01:46:38;99007.48;;;15.71;83.30
58662;BME280;44432;49.786;22.760;2022-09-09T01:49:09;99010.50;;;15.69;83.32
58662;BME280;44432;49.786;22.760;2022-09-09T01:51:42;99008.37;;;15.69;83.49
58662;BME280;44432;49.786;22.760;2022-09-09T01:54:13;99008.31;;;15.68;83.22
58662;BME280;44432;49.786;22.760;2022-09-09T01:56:51;99009.68;;;15.67;83.20
58662;BME280;44432;49.786;22.760;2022-09-09T01:59:42;99012.98;;;15.67;83.33
58662;BME280;44432;49.786;22.760;2022-09-09T02:02:19;99014.73;;;15.67;83.30
58662;BME280;44432;49.786;22.760;2022-09-09T02:04:57;99014.84;;;15.67;83.28
58662;BME280;44432;49.786;22.760;2022-09-09T02:07:38;99013.42;;;15.68;83.21
58662;BME280;44432;49.786;22.760;2022-09-09T02:10:12;99002.71;;;15.68;83.07
58662;BME280;44432;49.786;22.760;2022-09-09T02:12:48;99003.67;;;15.67;82.90
58662;BME280;44432;49.786;22.760;2022-09-09T02:15:23;99000.30;;;15.65;82.71
58662;BME280;44432;49.786;22.760;2022-09-09T02:17:59;98996.33;;;15.62;82.63
58662;BME280;44432;49.786;22.760;2022-09-09T02:20:32;98994.56;;;15.60;82.65
58662;BME280;44432;49.786;22.760;2022-09-09T02:23:05;98991.21;;;15.58;82.73
58662;BME280;44432;49.786;22.760;2022-09-09T02:25:38;98994.83;;;15.58;82.92
58662;BME280;44432;49.786;22.760;2022-09-09T02:28:10;98997.86;;;15.58;83.00
58662;BME280;44432;49.786;22.760;2022-09-09T02:30:44;99001.94;;;15.56;82.85
58662;BME280;44432;49.786;22.760;2022-09-09T02:33:16;98999.40;;;15.56;82.80
58662;BME280;44432;49.786;22.760;2022-09-09T02:35:48;98997.91;;;15.55;82.76
58662;BME280;44432;49.786;22.760;2022-09-09T02:38:22;99006.58;;;15.54;82.72
58662;BME280;44432;49.786;22.760;2022-09-09T02:40:56;99006.25;;;15.54;82.65
58662;BME280;44432;49.786;22.760;2022-09-09T02:43:31;99004.86;;;15.54;82.69
58662;BME280;44432;49.786;22.760;2022-09-09T02:46:08;98999.95;;;15.52;82.55
58662;BME280;44432;49.786;22.760;2022-09-09T02:48:51;99001.48;;;15.52;82.62
58662;BME280;44432;49.786;22.760;2022-09-09T02:51:27;99002.60;;;15.50;82.61
58662;BME280;44432;49.786;22.760;2022-09-09T02:54:07;99003.29;;;15.51;82.65
58662;BME280;44432;49.786;22.760;2022-09-09T02:56:46;99001.63;;;15.50;82.52
58662;BME280;44432;49.786;22.760;2022-09-09T02:59:19;99003.44;;;15.49;82.60
58662;BME280;44432;49.786;22.760;2022-09-09T03:01:50;99005.84;;;15.50;82.61
58662;BME280;44432;49.786;22.760;2022-09-09T03:04:22;99010.02;;;15.49;82.39
58662;BME280;44432;49.786;22.760;2022-09-09T03:06:54;99012.50;;;15.46;82.37
58662;BME280;44432;49.786;22.760;2022-09-09T03:09:24;99014.13;;;15.44;82.27
58662;BME280;44432;49.786;22.760;2022-09-09T03:11:56;99012.18;;;15.41;82.39
58662;BME280;44432;49.786;22.760;2022-09-09T03:14:26;99017.64;;;15.43;82.74
58662;BME280;44432;49.786;22.760;2022-09-09T03:16:57;99018.45;;;15.45;82.75
58662;BME280;44432;49.786;22.760;2022-09-09T03:19:28;99015.65;;;15.47;82.69
58662;BME280;44432;49.786;22.760;2022-09-09T03:21:59;99014.39;;;15.43;82.44
58662;BME280;44432;49.786;22.760;2022-09-09T03:24:29;99011.85;;;15.45;82.61
58662;BME280;44432;49.786;22.760;2022-09-09T03:27:00;99007.98;;;15.46;82.66
58662;BME280;44432;49.786;22.760;2022-09-09T03:29:30;99005.06;;;15.47;82.71
58662;BME280;44432;49.786;22.760;2022-09-09T03:32:02;99007.30;;;15.48;82.72
58662;BME280;44432;49.786;22.760;2022-09-09T03:34:33;99003.78;;;15.46;82.71
58662;BME280;44432;49.786;22.760;2022-09-09T03:37:03;99009.17;;;15.47;82.67
58662;BME280;44432;49.786;22.760;2022-09-09T03:39:34;99010.83;;;15.49;82.71
58662;BME280;44432;49.786;22.760;2022-09-09T03:42:05;99011.47;;;15.49;82.83
58662;BME280;44432;49.786;22.760;2022-09-09T03:44:36;99013.93;;;15.51;83.22
58662;BME280;44432;49.786;22.760;2022-09-09T03:47:07;99013.64;;;15.52;83.29
58662;BME280;44432;49.786;22.760;2022-09-09T03:49:37;99012.27;;;15.54;83.25
58662;BME280;44432;49.786;22.760;2022-09-09T03:52:09;99012.55;;;15.56;83.33
58662;BME280;44432;49.786;22.760;2022-09-09T03:54:40;99015.40;;;15.57;83.27
58662;BME280;44432;49.786;22.760;2022-09-09T03:57:11;99016.80;;;15.58;83.44
58662;BME280;44432;49.786;22.760;2022-09-09T03:59:43;99021.44;;;15.59;83.34
58662;BME280;44432;49.786;22.760;2022-09-09T04:02:13;99022.27;;;15.57;83.27
58662;BME280;44432;49.786;22.760;2022-09-09T04:04:44;99020.14;;;15.57;83.35
58662;BME280;44432;49.786;22.760;2022-09-09T04:07:15;99018.30;;;15.57;83.50
58662;BME280;44432;49.786;22.760;2022-09-09T04:09:45;99016.91;;;15.57;83.43
58662;BME280;44432;49.786;22.760;2022-09-09T04:12:16;99016.01;;;15.55;83.19
58662;BME280;44432;49.786;22.760;2022-09-09T04:14:47;99022.64;;;15.54;83.14
58662;BME280;44432;49.786;22.760;2022-09-09T04:17:17;99022.67;;;15.52;83.06
58662;BME280;44432;49.786;22.760;2022-09-09T04:19:48;99020.36;;;15.50;83.12
58662;BME280;44432;49.786;22.760;2022-09-09T04:22:18;99017.61;;;15.51;83.22
58662;BME280;44432;49.786;22.760;2022-09-09T04:24:49;99019.52;;;15.50;83.10
58662;BME280;44432;49.786;22.760;2022-09-09T04:27:19;99020.65;;;15.47;82.87
58662;BME280;44432;49.786;22.760;2022-09-09T04:29:50;99022.02;;;15.44;82.99
58662;BME280;44432;49.786;22.760;2022-09-09T04:32:20;99023.60;;;15.44;83.12
58662;BME280;44432;49.786;22.760;2022-09-09T04:34:51;99023.04;;;15.42;83.32
58662;BME280;44432;49.786;22.760;2022-09-09T04:37:22;99019.95;;;15.41;83.53
58662;BME280;44432;49.786;22.760;2022-09-09T04:39:54;99022.40;;;15.41;83.44
58662;BME280;44432;49.786;22.760;2022-09-09T04:42:25;99019.80;;;15.42;83.59
58662;BME280;44432;49.786;22.760;2022-09-09T04:44:57;99026.64;;;15.44;83.76
58662;BME280;44432;49.786;22.760;2022-09-09T04:47:27;99030.70;;;15.46;83.58
58662;BME280;44432;49.786;22.760;2022-09-09T04:49:57;99033.84;;;15.46;83.69
58662;BME280;44432;49.786;22.760;2022-09-09T04:52:28;99034.61;;;15.49;83.94
58662;BME280;44432;49.786;22.760;2022-09-09T04:54:59;99033.45;;;15.50;83.72
58662;BME280;44432;49.786;22.760;2022-09-09T04:57:30;99032.73;;;15.51;83.41
58662;BME280;44432;49.786;22.760;2022-09-09T05:00:01;99033.48;;;15.53;83.68
58662;BME280;44432;49.786;22.760;2022-09-09T05:02:32;99034.97;;;15.56;83.56
58662;BME280;44432;49.786;22.760;2022-09-09T05:05:04;99033.31;;;15.60;83.59
58662;BME280;44432;49.786;22.760;2022-09-09T05:07:34;99036.75;;;15.65;83.65
58662;BME280;44432;49.786;22.760;2022-09-09T05:10:06;99035.35;;;15.69;83.55
58662;BME280;44432;49.786;22.760;2022-09-09T05:12:36;99040.88;;;15.73;83.51
58662;BME280;44432;49.786;22.760;2022-09-09T05:15:09;99037.23;;;15.77;83.42
58662;BME280;44432;49.786;22.760;2022-09-09T05:17:40;99047.38;;;15.79;83.14
58662;BME280;44432;49.786;22.760;2022-09-09T05:20:12;99049.28;;;15.78;82.78
58662;BME280;44432;49.786;22.760;2022-09-09T05:22:42;99046.61;;;15.76;82.50
58662;BME280;44432;49.786;22.760;2022-09-09T05:25:13;99047.05;;;15.74;82.36
58662;BME280;44432;49.786;22.760;2022-09-09T05:27:43;99047.52;;;15.72;82.25
58662;BME280;44432;49.786;22.760;2022-09-09T05:30:14;99049.33;;;15.71;82.38
58662;BME280;44432;49.786;22.760;2022-09-09T05:32:46;99041.83;;;15.73;82.37
58662;BME280;44432;49.786;22.760;2022-09-09T05:35:18;99045.03;;;15.73;82.14
58662;BME280;44432;49.786;22.760;2022-09-09T05:37:49;99049.71;;;15.74;82.00
58662;BME280;44432;49.786;22.760;2022-09-09T05:40:20;99047.33;;;15.73;81.91
58662;BME280;44432;49.786;22.760;2022-09-09T05:42:51;99050.09;;;15.74;81.85
58662;BME280;44432;49.786;22.760;2022-09-09T05:45:22;99051.80;;;15.74;81.78
58662;BME280;44432;49.786;22.760;2022-09-09T05:47:54;99054.39;;;15.72;81.68
58662;BME280;44432;49.786;22.760;2022-09-09T05:50:24;99057.36;;;15.71;81.68
58662;BME280;44432;49.786;22.760;2022-09-09T05:52:56;99055.85;;;15.69;81.50
58662;BME280;44432;49.786;22.760;2022-09-09T05:55:28;99054.25;;;15.68;81.81
58662;BME280;44432;49.786;22.760;2022-09-09T05:57:58;99053.99;;;15.70;82.07
58662;BME280;44432;49.786;22.760;2022-09-09T06:00:30;99057.94;;;15.71;82.11
58662;BME280;44432;49.786;22.760;2022-09-09T06:03:01;99058.44;;;15.72;82.14
58662;BME280;44432;49.786;22.760;2022-09-09T06:05:32;99062.13;;;15.74;82.11
58662;BME280;44432;49.786;22.760;2022-09-09T06:08:04;99061.75;;;15.74;81.96
58662;BME280;44432;49.786;22.760;2022-09-09T06:10:35;99068.49;;;15.72;82.00
58662;BME280;44432;49.786;22.760;2022-09-09T06:13:05;99065.67;;;15.72;82.15
58662;BME280;44432;49.786;22.760;2022-09-09T06:15:36;99064.50;;;15.72;82.44
58662;BME280;44432;49.786;22.760;2022-09-09T06:18:06;99068.11;;;15.72;82.55
58662;BME280;44432;49.786;22.760;2022-09-09T06:20:37;99068.09;;;15.75;82.93
58662;BME280;44432;49.786;22.760;2022-09-09T06:23:08;99069.35;;;15.78;83.02
58662;BME280;44432;49.786;22.760;2022-09-09T06:25:38;99063.67;;;15.80;83.02
58662;BME280;44432;49.786;22.760;2022-09-09T06:28:09;99068.05;;;15.82;82.92
58662;BME280;44432;49.786;22.760;2022-09-09T06:30:40;99068.85;;;15.81;82.91
58662;BME280;44432;49.786;22.760;2022-09-09T06:33:10;99071.75;;;15.83;83.14
58662;BME280;44432;49.786;22.760;2022-09-09T06:35:41;99075.48;;;15.84;83.01
58662;BME280;44432;49.786;22.760;2022-09-09T06:38:12;99077.05;;;15.86;83.28
58662;BME280;44432;49.786;22.760;2022-09-09T06:40:43;99073.02;;;15.88;83.26
58662;BME280;44432;49.786;22.760;2022-09-09T06:43:13;99077.30;;;15.90;83.38
58662;BME280;44432;49.786;22.760;2022-09-09T06:45:44;99081.02;;;15.90;83.21
58662;BME280;44432;49.786;22.760;2022-09-09T06:48:22;99078.73;;;15.88;83.17
58662;BME280;44432;49.786;22.760;2022-09-09T06:51:03;99079.48;;;15.85;83.19
58662;BME280;44432;49.786;22.760;2022-09-09T06:53:34;99081.92;;;15.84;83.32
58662;BME280;44432;49.786;22.760;2022-09-09T06:56:19;99087.02;;;15.83;83.24
58662;BME280;44432;49.786;22.760;2022-09-09T06:58:52;99088.55;;;15.76;83.11
58662;BME280;44432;49.786;22.760;2022-09-09T07:01:25;99088.45;;;15.72;83.46
58662;BME280;44432;49.786;22.760;2022-09-09T07:03:58;99090.05;;;15.72;83.51
58662;BME280;44432;49.786;22.760;2022-09-09T07:06:30;99090.39;;;15.74;83.74
58662;BME280;44432;49.786;22.760;2022-09-09T07:09:03;99091.52;;;15.74;83.54
58662;BME280;44432;49.786;22.760;2022-09-09T07:11:37;99098.42;;;15.74;83.84
58662;BME280;44432;49.786;22.760;2022-09-09T07:14:08;99099.00;;;15.73;83.58
58662;BME280;44432;49.786;22.760;2022-09-09T07:16:43;99101.79;;;15.69;83.28
58662;BME280;44432;49.786;22.760;2022-09-09T07:19:14;99097.27;;;15.65;83.51
58662;BME280;44432;49.786;22.760;2022-09-09T07:21:45;99103.38;;;15.64;83.86
58662;BME280;44432;49.786;22.760;2022-09-09T07:24:16;99106.66;;;15.62;83.86
58662;BME280;44432;49.786;22.760;2022-09-09T07:26:46;99109.95;;;15.58;83.82
58662;BME280;44432;49.786;22.760;2022-09-09T07:29:17;99115.41;;;15.57;84.10
58662;BME280;44432;49.786;22.760;2022-09-09T07:31:47;99117.13;;;15.59;84.60
58662;BME280;44432;49.786;22.760;2022-09-09T07:34:18;99123.58;;;15.62;84.56
58662;BME280;44432;49.786;22.760;2022-09-09T07:36:49;99123.13;;;15.64;84.63
58662;BME280;44432;49.786;22.760;2022-09-09T07:39:20;99132.34;;;15.65;84.72
58662;BME280;44432;49.786;22.760;2022-09-09T07:41:50;99128.06;;;15.67;85.13
58662;BME280;44432;49.786;22.760;2022-09-09T07:44:22;99128.41;;;15.71;85.13
58662;BME280;44432;49.786;22.760;2022-09-09T07:46:54;99131.41;;;15.76;85.42
58662;BME280;44432;49.786;22.760;2022-09-09T07:49:24;99130.84;;;15.83;85.71
58662;BME280;44432;49.786;22.760;2022-09-09T07:51:55;99134.82;;;15.91;85.87
58662;BME280;44432;49.786;22.760;2022-09-09T07:54:26;99132.84;;;16.00;85.89
58662;BME280;44432;49.786;22.760;2022-09-09T07:56:56;99137.89;;;16.10;85.87
58662;BME280;44432;49.786;22.760;2022-09-09T07:59:27;99139.31;;;16.20;85.76
58662;BME280;44432;49.786;22.760;2022-09-09T08:01:59;99143.26;;;16.31;85.94
58662;BME280;44432;49.786;22.760;2022-09-09T08:04:29;99143.13;;;16.41;85.74
58662;BME280;44432;49.786;22.760;2022-09-09T08:07:01;99144.73;;;16.49;85.67
58662;BME280;44432;49.786;22.760;2022-09-09T08:09:32;99150.00;;;16.53;85.51
58662;BME280;44432;49.786;22.760;2022-09-09T08:12:03;99154.08;;;16.55;85.29
58662;BME280;44432;49.786;22.760;2022-09-09T08:14:35;99148.91;;;16.57;85.31
58662;BME280;44432;49.786;22.760;2022-09-09T08:17:06;99152.10;;;16.63;85.36
58662;BME280;44432;49.786;22.760;2022-09-09T08:19:37;99153.10;;;16.68;85.31
58662;BME280;44432;49.786;22.760;2022-09-09T08:22:07;99152.61;;;16.75;85.28
58662;BME280;44432;49.786;22.760;2022-09-09T08:24:38;99158.66;;;16.84;85.05
58662;BME280;44432;49.786;22.760;2022-09-09T08:27:10;99160.86;;;16.93;84.99
58662;BME280;44432;49.786;22.760;2022-09-09T08:29:41;99160.39;;;17.03;84.96
58662;BME280;44432;49.786;22.760;2022-09-09T08:32:12;99163.77;;;17.15;84.73
58662;BME280;44432;49.786;22.760;2022-09-09T08:34:43;99167.58;;;17.26;84.53
58662;BME280;44432;49.786;22.760;2022-09-09T08:37:13;99168.60;;;17.38;84.50
58662;BME280;44432;49.786;22.760;2022-09-09T08:39:44;99168.90;;;17.45;84.30
58662;BME280;44432;49.786;22.760;2022-09-09T08:42:29;99167.55;;;17.51;84.15
58662;BME280;44432;49.786;22.760;2022-09-09T08:45:24;99164.42;;;17.59;84.00
58662;BME280;44432;49.786;22.760;2022-09-09T08:48:05;99166.30;;;17.70;84.05
58662;BME280;44432;49.786;22.760;2022-09-09T08:50:40;99167.98;;;17.77;83.86
58662;BME280;44432;49.786;22.760;2022-09-09T08:53:13;99167.45;;;17.82;83.69
58662;BME280;44432;49.786;22.760;2022-09-09T08:55:49;99168.48;;;17.85;83.55
58662;BME280;44432;49.786;22.760;2022-09-09T08:58:22;99171.97;;;17.91;83.70
58662;BME280;44432;49.786;22.760;2022-09-09T09:01:09;99172.78;;;17.95;83.54
58662;BME280;44432;49.786;22.760;2022-09-09T09:03:56;99175.63;;;17.99;83.47
58662;BME280;44432;49.786;22.760;2022-09-09T09:06:42;99172.38;;;18.02;83.41
58662;BME280;44432;49.786;22.760;2022-09-09T09:09:23;99175.27;;;18.08;83.48
58662;BME280;44432;49.786;22.760;2022-09-09T09:11:58;99171.55;;;18.15;83.55
58662;BME280;44432;49.786;22.760;2022-09-09T09:14:33;99175.52;;;18.27;83.33
58662;BME280;44432;49.786;22.760;2022-09-09T09:17:06;99171.11;;;18.42;83.19
58662;BME280;44432;49.786;22.760;2022-09-09T09:19:41;99175.42;;;18.61;83.12
58662;BME280;44432;49.786;22.760;2022-09-09T09:22:13;99174.65;;;18.82;82.88
58662;BME280;44432;49.786;22.760;2022-09-09T09:24:52;99168.85;;;19.03;82.71
58662;BME280;44432;49.786;22.760;2022-09-09T09:27:32;99167.80;;;19.22;82.25
58662;BME280;44432;49.786;22.760;2022-09-09T09:30:12;99167.95;;;19.41;82.25
58662;BME280;44432;49.786;22.760;2022-09-09T09:32:47;99168.52;;;19.55;81.84
58662;BME280;44432;49.786;22.760;2022-09-09T09:35:19;99169.45;;;19.68;81.34
58662;BME280;44432;49.786;22.760;2022-09-09T09:37:50;99172.52;;;19.80;80.77
58662;BME280;44432;49.786;22.760;2022-09-09T09:40:22;99172.23;;;19.94;80.80
58662;BME280;44432;49.786;22.760;2022-09-09T09:42:56;99173.31;;;20.13;80.76
58662;BME280;44432;49.786;22.760;2022-09-09T09:45:34;99177.76;;;20.34;80.67
58662;BME280;44432;49.786;22.760;2022-09-09T09:48:08;99179.52;;;20.45;79.15
58662;BME280;44432;49.786;22.760;2022-09-09T09:50:49;99180.05;;;20.45;79.20
58662;BME280;44432;49.786;22.760;2022-09-09T09:53:23;99181.73;;;20.39;78.27
58662;BME280;44432;49.786;22.760;2022-09-09T09:55:57;99181.73;;;20.31;78.04
58662;BME280;44432;49.786;22.760;2022-09-09T09:58:30;99182.83;;;20.10;76.93
58662;BME280;44432;49.786;22.760;2022-09-09T10:01:02;99182.08;;;19.88;77.67
58662;BME280;44432;49.786;22.760;2022-09-09T10:03:34;99191.15;;;19.75;77.46
58662;BME280;44432;49.786;22.760;2022-09-09T10:06:08;99186.73;;;19.73;77.94
58662;BME280;44432;49.786;22.760;2022-09-09T10:08:46;99185.70;;;19.79;78.25
58662;BME280;44432;49.786;22.760;2022-09-09T10:11:38;99187.11;;;19.88;78.68
58662;BME280;44432;49.786;22.760;2022-09-09T10:14:18;99188.11;;;19.93;78.15
58662;BME280;44432;49.786;22.760;2022-09-09T10:17:01;99190.65;;;19.99;78.29
58662;BME280;44432;49.786;22.760;2022-09-09T10:19:36;99194.43;;;20.03;77.61
58662;BME280;44432;49.786;22.760;2022-09-09T10:22:18;99191.45;;;20.01;77.62
58662;BME280;44432;49.786;22.760;2022-09-09T10:25:04;99195.98;;;19.95;76.99
58662;BME280;44432;49.786;22.760;2022-09-09T10:27:49;99194.91;;;19.80;76.58
58662;BME280;44432;49.786;22.760;2022-09-09T10:30:26;99195.52;;;19.75;77.01
58662;BME280;44432;49.786;22.760;2022-09-09T10:33:07;99197.16;;;19.81;77.55
58662;BME280;44432;49.786;22.760;2022-09-09T10:35:45;99200.17;;;19.91;77.15
58662;BME280;44432;49.786;22.760;2022-09-09T10:38:19;99202.36;;;19.94;77.18
58662;BME280;44432;49.786;22.760;2022-09-09T10:41:09;99206.60;;;20.03;77.58
58662;BME280;44432;49.786;22.760;2022-09-09T10:43:51;99209.91;;;20.15;76.93
58662;BME280;44432;49.786;22.760;2022-09-09T10:46:26;99209.52;;;20.18;76.56
58662;BME280;44432;49.786;22.760;2022-09-09T10:49:11;99210.80;;;20.09;76.11
58662;BME280;44432;49.786;22.760;2022-09-09T10:51:52;99221.54;;;20.06;76.08
58662;BME280;44432;49.786;22.760;2022-09-09T10:54:35;99219.77;;;20.05;76.37
58662;BME280;44432;49.786;22.760;2022-09-09T10:57:13;99222.91;;;20.12;76.24
58662;BME280;44432;49.786;22.760;2022-09-09T10:59:50;99221.08;;;20.21;76.42
58662;BME280;44432;49.786;22.760;2022-09-09T11:02:26;99223.31;;;20.38;75.79
58662;BME280;44432;49.786;22.760;2022-09-09T11:05:02;99224.64;;;20.58;75.43
58662;BME280;44432;49.786;22.760;2022-09-09T11:07:39;99221.50;;;20.81;74.68
58662;BME280;44432;49.786;22.760;2022-09-09T11:10:20;99217.17;;;20.90;74.28
58662;BME280;44432;49.786;22.760;2022-09-09T11:12:56;99218.88;;;21.05;74.42
58662;BME280;44432;49.786;22.760;2022-09-09T11:15:36;99220.81;;;21.15;74.01
58662;BME280;44432;49.786;22.760;2022-09-09T11:18:13;99222.89;;;21.12;72.84
58662;BME280;44432;49.786;22.760;2022-09-09T11:20:46;99219.84;;;21.11;72.62
58662;BME280;44432;49.786;22.760;2022-09-09T11:23:20;99218.27;;;21.18;72.20
58662;BME280;44432;49.786;22.760;2022-09-09T11:25:56;99221.30;;;21.25;71.84
58662;BME280;44432;49.786;22.760;2022-09-09T11:28:44;99221.92;;;21.26;71.63
58662;BME280;44432;49.786;22.760;2022-09-09T11:31:33;99226.77;;;21.40;72.03
58662;BME280;44432;49.786;22.760;2022-09-09T11:34:21;99222.27;;;21.55;71.67
58662;BME280;44432;49.786;22.760;2022-09-09T11:37:19;99222.75;;;21.60;71.03
58662;BME280;44432;49.786;22.760;2022-09-09T11:40:17;99230.25;;;21.52;70.08
58662;BME280;44432;49.786;22.760;2022-09-09T11:42:49;99233.89;;;21.49;70.28
58662;BME280;44432;49.786;22.760;2022-09-09T11:45:31;99235.70;;;21.55;70.65
58662;BME280;44432;49.786;22.760;2022-09-09T11:48:04;99235.80;;;21.61;70.37
58662;BME280;44432;49.786;22.760;2022-09-09T11:50:37;99234.91;;;21.59;69.87
58662;BME280;44432;49.786;22.760;2022-09-09T11:53:22;99241.45;;;21.50;69.54
58662;BME280;44432;49.786;22.760;2022-09-09T11:56:11;99239.64;;;21.39;69.43
58662;BME280;44432;49.786;22.760;2022-09-09T11:58:54;99239.36;;;21.22;68.82
58662;BME280;44432;49.786;22.760;2022-09-09T12:01:40;99237.94;;;21.03;69.25
58662;BME280;44432;49.786;22.760;2022-09-09T12:04:21;99245.20;;;20.89;69.56
58662;BME280;44432;49.786;22.760;2022-09-09T12:06:59;99248.01;;;20.81;69.99
58662;BME280;44432;49.786;22.760;2022-09-09T12:09:48;99246.05;;;20.80;70.10
58662;BME280;44432;49.786;22.760;2022-09-09T12:12:26;99242.39;;;20.80;70.26
58662;BME280;44432;49.786;22.760;2022-09-09T12:15:00;99246.21;;;20.84;70.20
58662;BME280;44432;49.786;22.760;2022-09-09T12:17:36;99243.64;;;20.91;70.45
58662;BME280;44432;49.786;22.760;2022-09-09T12:20:14;99242.73;;;21.03;70.40
58662;BME280;44432;49.786;22.760;2022-09-09T12:22:54;99247.20;;;21.14;70.03
58662;BME280;44432;49.786;22.760;2022-09-09T12:25:35;99247.48;;;21.20;69.58
58662;BME280;44432;49.786;22.760;2022-09-09T12:28:14;99250.70;;;21.18;69.08
58662;BME280;44432;49.786;22.760;2022-09-09T12:30:55;99247.02;;;21.15;68.96
58662;BME280;44432;49.786;22.760;2022-09-09T12:33:35;99240.14;;;21.11;68.90
58662;BME280;44432;49.786;22.760;2022-09-09T12:36:10;99235.81;;;21.08;68.85
58662;BME280;44432;49.786;22.760;2022-09-09T12:38:43;99238.77;;;21.07;68.83
58662;BME280;44432;49.786;22.760;2022-09-09T12:41:22;99234.61;;;21.10;68.80
58662;BME280;44432;49.786;22.760;2022-09-09T12:44:05;99233.10;;;21.17;68.72
58662;BME280;44432;49.786;22.760;2022-09-09T12:46:39;99233.49;;;21.30;68.74
58662;BME280;44432;49.786;22.760;2022-09-09T12:49:27;99230.89;;;21.38;68.33
58662;BME280;44432;49.786;22.760;2022-09-09T12:52:00;99227.14;;;21.42;67.94
58662;BME280;44432;49.786;22.760;2022-09-09T12:54:31;99220.64;;;21.47;67.86
58662;BME280;44432;49.786;22.760;2022-09-09T12:57:03;99221.20;;;21.55;68.02
58662;BME280;44432;49.786;22.760;2022-09-09T12:59:39;99221.80;;;21.64;67.53
58662;BME280;44432;49.786;22.760;2022-09-09T13:02:24;99221.21;;;21.68;67.30
58662;BME280;44432;49.786;22.760;2022-09-09T13:04:55;99217.61;;;21.67;66.84
58662;BME280;44432;49.786;22.760;2022-09-09T13:07:36;99218.21;;;21.67;66.78
58662;BME280;44432;49.786;22.760;2022-09-09T13:10:09;99212.77;;;21.78;66.84
58662;BME280;44432;49.786;22.760;2022-09-09T13:12:41;99210.40;;;21.93;66.34
58662;BME280;44432;49.786;22.760;2022-09-09T13:15:21;99208.61;;;22.05;66.04
58662;BME280;44432;49.786;22.760;2022-09-09T13:17:55;99209.76;;;22.23;65.93
58662;BME280;44432;49.786;22.760;2022-09-09T13:20:26;99208.80;;;22.41;65.29
58662;BME280;44432;49.786;22.760;2022-09-09T13:22:59;99208.95;;;22.50;64.94
58662;BME280;44432;49.786;22.760;2022-09-09T13:25:30;99210.61;;;22.61;64.31
58662;BME280;44432;49.786;22.760;2022-09-09T13:28:02;99212.24;;;22.63;63.80
58662;BME280;44432;49.786;22.760;2022-09-09T13:30:34;99212.10;;;22.62;63.75